createdAt,value
2023-01-12T00:00:28.512Z,8.5
2023-01-12T00:05:22.161Z,8.5
2023-01-12T00:07:47.611Z,8.5
2023-01-12T00:10:13.051Z,8.5
2023-01-12T00:15:06.712Z,8.4
2023-01-12T00:17:33.557Z,8.4
2023-01-12T00:20:00.395Z,8.4
2023-01-12T00:22:27.909Z,8.4
2023-01-12T00:27:20.946Z,8.4
2023-01-12T00:29:47.754Z,8.4
2023-01-12T00:32:14.615Z,8.4
2023-01-12T00:34:41.436Z,8.4
2023-01-12T00:37:08.268Z,8.4
2023-01-12T00:39:35.116Z,8.4
2023-01-12T00:42:00.544Z,8.4
2023-01-12T00:44:27.375Z,8.4
2023-01-12T00:46:54.214Z,8.4
2023-01-12T00:49:21.068Z,8.4
2023-01-12T00:51:47.892Z,8.3
2023-01-12T00:54:14.730Z,8.3
2023-01-12T00:56:41.580Z,8.3
2023-01-12T01:04:02.092Z,8.3
2023-01-12T01:06:28.954Z,8.3
2023-01-12T01:08:55.780Z,8.3
2023-01-12T01:11:22.622Z,8.3
2023-01-12T01:13:48.024Z,8.2
2023-01-12T01:16:14.875Z,8.2
2023-01-12T01:18:41.718Z,8.2
2023-01-12T01:21:08.553Z,8.2
2023-01-12T01:23:35.402Z,8.2
2023-01-12T01:26:02.244Z,8.2
2023-01-12T01:28:29.087Z,8.2
2023-01-12T01:30:55.920Z,8.2
2023-01-12T01:33:22.755Z,8.2
2023-01-12T01:35:49.603Z,8.2
2023-01-12T01:38:16.433Z,8.2
2023-01-12T01:40:43.296Z,8.2
2023-01-12T01:43:10.110Z,8.2
2023-01-12T01:45:35.540Z,8.2
2023-01-12T01:48:02.381Z,8.2
2023-01-12T01:50:29.911Z,8.2
2023-01-12T01:52:54.779Z,8.2
2023-01-12T01:55:20.118Z,8.2
2023-01-12T01:57:46.954Z,8.2
2023-01-12T02:00:13.779Z,8.2
2023-01-12T02:02:40.622Z,8.2
2023-01-12T02:05:07.445Z,8.2
2023-01-12T02:07:34.306Z,8.1
2023-01-12T02:10:01.130Z,8.1
2023-01-12T02:12:27.985Z,8.1
2023-01-12T02:14:54.813Z,8.1
2023-01-12T02:17:21.729Z,8.1
2023-01-12T02:19:47.132Z,8.1
2023-01-12T02:22:12.529Z,8.1
2023-01-12T02:24:39.379Z,8.1
2023-01-12T02:27:06.209Z,8.1
2023-01-12T02:31:59.905Z,8.1
2023-01-12T02:34:26.753Z,8.1
2023-01-12T02:36:53.573Z,8.1
2023-01-12T02:41:47.256Z,8.1
2023-01-12T02:44:14.106Z,8.1
2023-01-12T02:46:40.943Z,8.1
2023-01-12T02:49:07.776Z,8.1
2023-01-12T02:51:33.288Z,8.1
2023-01-12T02:53:58.645Z,8.1
2023-01-12T02:56:25.497Z,8.1
2023-01-12T02:58:52.336Z,8.1
2023-01-12T03:01:19.168Z,8.1
2023-01-12T03:03:46.053Z,8.1
2023-01-12T03:06:12.865Z,8.1
2023-01-12T03:08:39.704Z,8.1
2023-01-12T03:11:06.538Z,8.1
2023-01-12T03:13:33.394Z,8.1
2023-01-12T03:16:00.209Z,8.1
2023-01-12T03:18:25.681Z,8
2023-01-12T03:20:51.116Z,8.1
2023-01-12T03:23:17.950Z,8.1
2023-01-12T03:25:44.791Z,8.1
2023-01-12T03:28:11.613Z,8
2023-01-12T03:30:38.465Z,8
2023-01-12T03:33:05.287Z,8
2023-01-12T03:35:32.133Z,8
2023-01-12T03:37:58.977Z,8
2023-01-12T03:40:25.811Z,8
2023-01-12T03:42:52.650Z,8
2023-01-12T03:45:19.484Z,8
2023-01-12T03:47:46.340Z,8
2023-01-12T03:50:13.179Z,8
2023-01-12T03:52:38.611Z,8
2023-01-12T03:55:05.423Z,8
2023-01-12T03:57:32.279Z,8
2023-01-12T03:59:59.113Z,8
2023-01-12T04:04:52.794Z,8
2023-01-12T04:07:19.640Z,8
2023-01-12T04:09:46.497Z,8
2023-01-12T04:12:13.304Z,8
2023-01-12T04:14:40.161Z,8
2023-01-12T04:17:07.436Z,8
2023-01-12T04:22:00.674Z,8
2023-01-12T04:24:26.086Z,7.9
2023-01-12T04:26:52.929Z,7.9
2023-01-12T04:29:19.775Z,7.9
2023-01-12T04:31:46.613Z,7.9
2023-01-12T04:34:13.454Z,7.9
2023-01-12T04:36:40.293Z,7.9
2023-01-12T04:39:07.138Z,7.9
2023-01-12T04:41:33.981Z,7.9
2023-01-12T04:44:00.808Z,7.9
2023-01-12T04:46:27.652Z,7.9
2023-01-12T04:48:54.580Z,7.9
2023-01-12T04:51:21.357Z,7.9
2023-01-12T04:53:48.183Z,7.9
2023-01-12T04:56:13.590Z,7.9
2023-01-12T04:58:40.460Z,7.9
2023-01-12T05:01:07.275Z,7.9
2023-01-12T05:03:34.121Z,7.9
2023-01-12T05:06:00.944Z,7.9
2023-01-12T05:08:27.783Z,7.9
2023-01-12T05:10:54.655Z,7.9
2023-01-12T05:13:21.474Z,7.9
2023-01-12T05:15:48.327Z,7.9
2023-01-12T05:18:15.146Z,7.9
2023-01-12T05:20:42.006Z,7.9
2023-01-12T05:23:08.846Z,7.9
2023-01-12T05:25:35.670Z,7.9
2023-01-12T05:28:02.478Z,7.9
2023-01-12T05:30:27.908Z,7.9
2023-01-12T05:32:54.751Z,7.9
2023-01-12T05:35:21.629Z,7.9
2023-01-12T05:37:48.443Z,7.9
2023-01-12T05:40:15.291Z,7.9
2023-01-12T05:42:42.096Z,7.9
2023-01-12T05:45:08.930Z,7.9
2023-01-12T05:47:35.793Z,7.9
2023-01-12T05:50:02.632Z,7.9
2023-01-12T05:52:29.482Z,7.9
2023-01-12T05:54:56.306Z,7.9
2023-01-12T05:57:23.149Z,7.9
2023-01-12T05:59:50.011Z,7.9
2023-01-12T06:02:15.407Z,7.9
2023-01-12T06:04:42.251Z,7.9
2023-01-12T06:07:09.111Z,7.9
2023-01-12T06:09:35.923Z,7.9
2023-01-12T06:12:02.776Z,7.9
2023-01-12T06:14:29.598Z,7.9
2023-01-12T06:16:56.452Z,7.9
2023-01-12T06:19:23.282Z,7.9
2023-01-12T06:21:50.124Z,7.9
2023-01-12T06:24:16.960Z,7.9
2023-01-12T06:26:43.805Z,7.9
2023-01-12T06:29:10.698Z,7.9
2023-01-12T06:31:37.473Z,7.9
2023-01-12T06:34:02.897Z,7.9
2023-01-12T06:36:29.733Z,7.9
2023-01-12T06:38:56.573Z,7.9
2023-01-12T06:41:23.419Z,7.9
2023-01-12T06:43:50.266Z,7.9
2023-01-12T06:46:17.094Z,7.9
2023-01-12T06:51:10.793Z,7.9
2023-01-12T06:56:04.446Z,7.9
2023-01-12T06:58:31.509Z,7.9
2023-01-12T07:03:24.990Z,7.9
2023-01-12T07:05:50.856Z,7.9
2023-01-12T07:08:17.251Z,7.9
2023-01-12T07:10:42.673Z,7.9
2023-01-12T07:13:09.504Z,7.9
2023-01-12T07:15:36.384Z,7.9
2023-01-12T07:18:03.211Z,7.9
2023-01-12T07:20:30.030Z,7.9
2023-01-12T07:22:56.955Z,7.9
2023-01-12T07:25:23.751Z,7.9
2023-01-12T07:27:50.556Z,7.9
2023-01-12T07:30:17.389Z,7.9
2023-01-12T07:32:44.198Z,7.9
2023-01-12T07:35:09.658Z,7.9
2023-01-12T07:37:35.087Z,7.9
2023-01-12T07:40:01.917Z,7.9
2023-01-12T07:42:28.988Z,7.9
2023-01-12T07:47:22.444Z,7.9
2023-01-12T07:49:49.374Z,7.9
2023-01-12T07:52:16.186Z,7.9
2023-01-12T07:54:42.960Z,7.9
2023-01-12T07:57:09.802Z,7.9
2023-01-12T07:59:36.664Z,7.9
2023-01-12T08:02:03.490Z,7.9
2023-01-12T08:04:30.332Z,7.9
2023-01-12T08:06:57.214Z,7.9
2023-01-12T08:09:24.068Z,7.9
2023-01-12T08:11:49.402Z,7.9
2023-01-12T08:14:16.223Z,7.9
2023-01-12T08:16:43.092Z,7.9
2023-01-12T08:19:09.530Z,7.9
2023-01-12T08:21:35.341Z,7.9
2023-01-12T08:24:02.219Z,7.9
2023-01-12T08:26:29.048Z,7.9
2023-01-12T08:28:56.156Z,7.9
2023-01-12T08:31:22.714Z,7.9
2023-01-12T08:33:49.560Z,7.9
2023-01-12T08:36:16.404Z,7.9
2023-01-12T08:38:43.392Z,7.9
2023-01-12T08:41:10.094Z,7.9
2023-01-12T08:43:36.970Z,7.9
2023-01-12T08:46:03.738Z,7.9
2023-01-12T08:48:30.643Z,7.9
2023-01-12T08:50:56.023Z,7.9
2023-01-12T08:55:49.708Z,7.9
2023-01-12T08:58:16.672Z,7.9
2023-01-12T09:00:43.378Z,7.9
2023-01-12T09:03:10.209Z,7.9
2023-01-12T09:05:37.040Z,7.9
2023-01-12T09:08:03.970Z,7.9
2023-01-12T09:10:30.724Z,7.9
2023-01-12T09:12:57.560Z,7.9
2023-01-12T09:15:24.440Z,7.9
2023-01-12T09:17:51.435Z,7.9
2023-01-12T09:22:44.930Z,7.9
2023-01-12T09:25:11.735Z,7.9
2023-01-12T09:27:37.149Z,7.9
2023-01-12T09:30:03.987Z,7.9
2023-01-12T09:32:30.851Z,7.9
2023-01-12T09:34:57.837Z,7.9
2023-01-12T09:37:24.512Z,7.9
2023-01-12T09:39:51.360Z,7.9
2023-01-12T09:42:18.196Z,7.9
2023-01-12T09:49:38.860Z,7.9
2023-01-12T09:52:04.176Z,7.9
2023-01-12T09:54:30.976Z,7.9
2023-01-12T09:56:56.405Z,7.9
2023-01-12T09:59:23.248Z,7.9
2023-01-12T10:01:50.147Z,7.9
2023-01-12T10:04:16.916Z,7.9
2023-01-12T10:06:43.751Z,7.9
2023-01-12T10:09:10.604Z,7.9
2023-01-12T10:11:37.432Z,7.9
2023-01-12T10:14:04.280Z,7.9
2023-01-12T10:16:31.119Z,7.9
2023-01-12T10:18:56.568Z,7.9
2023-01-12T10:21:22.435Z,8
2023-01-12T10:23:48.841Z,7.9
2023-01-12T10:26:15.697Z,8
2023-01-12T10:28:42.513Z,8
2023-01-12T10:31:09.369Z,8
2023-01-12T10:33:36.197Z,8
2023-01-12T10:36:03.040Z,8
2023-01-12T10:38:29.878Z,8
2023-01-12T10:45:50.402Z,8
2023-01-12T10:48:17.233Z,8
2023-01-12T10:50:44.064Z,8
2023-01-12T10:53:10.855Z,8
2023-01-12T10:55:36.303Z,8
2023-01-12T10:58:01.746Z,8
2023-01-12T11:02:55.406Z,8.1
2023-01-12T11:05:22.247Z,8.1
2023-01-12T11:07:49.081Z,8.1
2023-01-12T11:10:15.922Z,8.1
2023-01-12T11:12:42.764Z,8.1
2023-01-12T11:15:09.614Z,8.1
2023-01-12T11:17:36.475Z,8.1
2023-01-12T11:20:03.280Z,8.1
2023-01-12T11:22:30.151Z,8.1
2023-01-12T11:24:56.978Z,8.1
2023-01-12T11:27:23.803Z,8.1
2023-01-12T11:29:49.226Z,8.1
2023-01-12T11:32:16.083Z,8.1
2023-01-12T11:34:42.902Z,8.1
2023-01-12T11:37:10.000Z,8.1
2023-01-12T11:39:36.584Z,8.1
2023-01-12T11:42:03.427Z,8.1
2023-01-12T11:44:30.259Z,8.1
2023-01-12T11:46:57.093Z,8.1
2023-01-12T11:51:50.789Z,8.1
2023-01-12T11:54:17.614Z,8.1
2023-01-12T11:56:43.058Z,8.1
2023-01-12T11:59:08.720Z,8.1
2023-01-12T12:01:35.318Z,8.1
2023-01-12T12:04:02.156Z,8.1
2023-01-12T12:06:28.989Z,8.1
2023-01-12T12:08:55.824Z,8.1
2023-01-12T12:11:22.655Z,8.1
2023-01-12T12:13:49.582Z,8.1
2023-01-12T12:18:43.186Z,8.1
2023-01-12T12:21:10.020Z,8.1
2023-01-12T12:23:36.873Z,8.1
2023-01-12T12:26:03.707Z,8.1
2023-01-12T12:28:30.548Z,8.1
2023-01-12T12:30:55.967Z,8.1
2023-01-12T12:33:22.815Z,8.1
2023-01-12T12:35:49.643Z,8.1
2023-01-12T12:38:16.480Z,8.1
2023-01-12T12:40:43.333Z,8.1
2023-01-12T12:43:10.171Z,8.1
2023-01-12T12:45:37.004Z,8.2
2023-01-12T12:48:03.855Z,8.2
2023-01-12T12:50:30.704Z,8.2
2023-01-12T12:52:57.517Z,8.2
2023-01-12T12:55:24.373Z,8.2
2023-01-12T12:57:51.212Z,8.2
2023-01-12T13:02:44.886Z,8.2
2023-01-12T13:05:11.745Z,8.2
2023-01-12T13:07:37.123Z,8.2
2023-01-12T13:10:03.963Z,8.2
2023-01-12T13:14:57.629Z,8.2
2023-01-12T13:17:24.478Z,8.2
2023-01-12T13:19:51.362Z,8.2
2023-01-12T13:22:18.165Z,8.2
2023-01-12T13:24:44.995Z,8.2
2023-01-12T13:27:11.839Z,8.2
2023-01-12T13:29:38.672Z,8.2
2023-01-12T13:32:05.509Z,8.2
2023-01-12T13:34:32.358Z,8.2
2023-01-12T13:36:59.200Z,8.2
2023-01-12T13:39:26.044Z,8.2
2023-01-12T13:41:51.449Z,8.2
2023-01-12T13:44:18.280Z,8.2
2023-01-12T13:46:45.294Z,8.2
2023-01-12T13:49:11.993Z,8.2
2023-01-12T13:54:05.668Z,8.2
2023-01-12T13:56:32.629Z,8.2
2023-01-12T13:58:59.365Z,8.2
2023-01-12T14:01:26.173Z,8.2
2023-01-12T14:03:53.008Z,8.2
2023-01-12T14:06:19.985Z,8.2
2023-01-12T14:08:46.693Z,8.2
2023-01-12T14:11:13.528Z,8.2
2023-01-12T14:13:39.052Z,8.2
2023-01-12T14:16:05.973Z,8.2
2023-01-12T14:18:32.793Z,8.2
2023-01-12T14:20:59.684Z,8.2
2023-01-12T14:25:53.260Z,8.3
2023-01-12T14:28:20.263Z,8.2
2023-01-12T14:30:46.829Z,8.3
2023-01-12T14:33:13.661Z,8.3
2023-01-12T14:35:40.501Z,8.3
2023-01-12T14:38:07.346Z,8.3
2023-01-12T14:40:34.254Z,8.3
2023-01-12T14:43:01.039Z,8.3
2023-01-12T14:45:26.504Z,8.3
2023-01-12T14:47:53.313Z,8.3
2023-01-12T14:50:20.122Z,8.3
2023-01-12T14:52:47.049Z,8.3
2023-01-12T14:55:13.890Z,8.3
2023-01-12T14:57:40.644Z,8.3
2023-01-12T15:00:07.550Z,8.3
2023-01-12T15:02:34.312Z,8.3
2023-01-12T15:05:01.219Z,8.3
2023-01-12T15:07:27.993Z,8.3
2023-01-12T15:09:54.845Z,8.3
2023-01-12T15:12:21.679Z,8.3
2023-01-12T15:14:48.535Z,8.3
2023-01-12T15:19:40.814Z,8.3
2023-01-12T15:22:07.911Z,8.4
2023-01-12T15:24:34.512Z,8.4
2023-01-12T15:27:01.293Z,8.4
2023-01-12T15:31:54.981Z,8.4
2023-01-12T15:34:21.868Z,8.4
2023-01-12T15:36:48.672Z,8.4
2023-01-12T15:39:15.652Z,8.4
2023-01-12T15:41:42.343Z,8.4
2023-01-12T15:44:09.180Z,8.4
2023-01-12T15:46:36.018Z,8.4
2023-01-12T15:49:01.463Z,8.4
2023-01-12T15:51:28.303Z,8.4
2023-01-12T15:53:55.152Z,8.4
2023-01-12T15:56:21.982Z,8.4
2023-01-12T16:01:15.663Z,8.4
2023-01-12T16:03:41.113Z,8.4
2023-01-12T16:06:06.570Z,8.4
2023-01-12T16:08:33.373Z,8.4
2023-01-12T16:11:00.200Z,8.4
2023-01-12T16:13:27.038Z,8.4
2023-01-12T16:15:53.883Z,8.4
2023-01-12T16:18:20.716Z,8.4
2023-01-12T16:20:47.555Z,8.4
2023-01-12T16:23:14.404Z,8.4
2023-01-12T16:25:41.246Z,8.4
2023-01-12T16:28:06.697Z,8.4
2023-01-12T16:30:33.550Z,8.4
2023-01-12T16:35:27.156Z,8.4
2023-01-12T16:37:52.600Z,8.4
2023-01-12T16:40:19.433Z,8.4
2023-01-12T16:42:46.372Z,8.4
2023-01-12T16:45:13.100Z,8.4
2023-01-12T16:47:39.949Z,8.4
2023-01-12T16:50:06.793Z,8.4
2023-01-12T16:52:33.681Z,8.4
2023-01-12T16:55:00.473Z,8.4
2023-01-12T16:57:27.343Z,8.4
2023-01-12T16:59:54.162Z,8.4
2023-01-12T17:02:20.995Z,8.4
2023-01-12T17:04:47.824Z,8.4
2023-01-12T17:07:14.677Z,8.4
2023-01-12T17:09:41.476Z,8.4
2023-01-12T17:12:06.909Z,8.4
2023-01-12T17:14:33.741Z,8.4
2023-01-12T17:17:01.326Z,8.4
2023-01-12T17:19:27.447Z,8.4
2023-01-12T17:21:54.255Z,8.4
2023-01-12T17:24:21.119Z,8.4
2023-01-12T17:29:15.512Z,8.4
2023-01-12T17:31:41.609Z,8.4
2023-01-12T17:34:08.451Z,8.4
2023-01-12T17:36:35.290Z,8.4
2023-01-12T17:39:02.188Z,8.4
2023-01-12T17:41:29.037Z,8.4
2023-01-12T17:43:55.805Z,8.4
2023-01-12T17:46:21.212Z,8.4
2023-01-12T17:48:48.041Z,8.4
2023-01-12T17:51:14.876Z,8.4
2023-01-12T17:53:41.720Z,8.5
2023-01-12T17:56:08.569Z,8.4
2023-01-12T17:58:35.406Z,8.5
2023-01-12T18:01:02.245Z,8.5
2023-01-12T18:03:29.080Z,8.5
2023-01-12T18:05:55.919Z,8.5
2023-01-12T18:08:22.767Z,8.5
2023-01-12T18:13:16.451Z,8.5
2023-01-12T18:18:10.172Z,8.5
2023-01-12T18:20:35.584Z,8.6
2023-01-12T18:23:02.392Z,8.6
2023-01-12T18:25:29.233Z,8.6
2023-01-12T18:27:56.054Z,8.6
2023-01-12T18:30:21.451Z,8.6
2023-01-12T18:35:15.199Z,8.6
2023-01-12T18:37:42.117Z,8.7
2023-01-12T18:40:08.822Z,8.7
2023-01-12T18:42:35.657Z,8.7
2023-01-12T18:45:02.559Z,8.7
2023-01-12T18:47:29.359Z,8.8
2023-01-12T18:49:56.180Z,8.8
2023-01-12T18:52:23.010Z,9
2023-01-12T18:54:49.887Z,9
2023-01-12T18:57:16.700Z,9.1
2023-01-12T18:59:43.544Z,9.1
2023-01-12T19:07:04.274Z,9.1
2023-01-12T19:11:57.756Z,9.1
2023-01-12T19:16:50.015Z,9.1
2023-01-12T19:19:16.826Z,9.1
2023-01-12T19:24:09.169Z,9.1
2023-01-12T19:26:35.925Z,9.1
2023-01-12T19:33:55.212Z,9
2023-01-12T19:36:20.515Z,9
2023-01-12T19:41:12.800Z,9
2023-01-12T19:43:39.622Z,9
2023-01-12T19:46:06.466Z,9
2023-01-12T19:48:33.306Z,9
2023-01-12T19:53:26.999Z,9
2023-01-12T19:55:53.810Z,8.9
2023-01-12T19:58:20.748Z,8.9
2023-01-12T20:00:47.515Z,8.9
2023-01-12T20:03:14.352Z,8.9
2023-01-12T20:05:41.184Z,8.9
2023-01-12T20:08:08.028Z,8.9
2023-01-12T20:10:33.441Z,8.9
2023-01-12T20:13:00.293Z,8.9
2023-01-12T20:15:27.122Z,8.9
2023-01-12T20:17:53.951Z,8.9
2023-01-12T20:20:20.808Z,8.9
2023-01-12T20:22:47.628Z,8.9
2023-01-12T20:25:14.555Z,8.9
2023-01-12T20:27:41.340Z,8.9
2023-01-12T20:30:08.163Z,8.9
2023-01-12T20:32:33.635Z,8.9
2023-01-12T20:34:59.045Z,8.9
2023-01-12T20:37:25.871Z,8.9
2023-01-12T20:39:52.759Z,8.9
2023-01-12T20:42:19.556Z,8.9
2023-01-12T20:44:46.411Z,8.9
2023-01-12T20:47:13.244Z,8.8
2023-01-12T20:49:40.076Z,8.9
2023-01-12T20:52:06.988Z,8.9
2023-01-12T20:54:33.820Z,8.8
2023-01-12T20:57:00.648Z,8.8
2023-01-12T20:59:27.408Z,8.8
2023-01-12T21:01:52.862Z,8.8
2023-01-12T21:04:18.286Z,8.8
2023-01-12T21:06:45.177Z,8.8
2023-01-12T21:11:38.809Z,8.8
2023-01-12T21:16:32.483Z,8.8
2023-01-12T21:18:59.329Z,8.8
2023-01-12T21:21:26.165Z,8.8
2023-01-12T21:23:53.023Z,8.8
2023-01-12T21:26:19.874Z,8.8
2023-01-12T21:28:46.687Z,8.8
2023-01-12T21:31:13.558Z,8.8
2023-01-12T21:33:40.344Z,8.8
2023-01-12T21:36:05.802Z,8.8
2023-01-12T21:38:32.637Z,8.8
2023-01-12T21:43:24.895Z,8.8
2023-01-12T21:48:18.593Z,8.7
2023-01-12T21:50:45.405Z,8.8
2023-01-12T21:53:12.262Z,8.7
2023-01-12T21:55:39.171Z,8.8
2023-01-12T21:58:06.043Z,8.8
2023-01-12T22:02:59.676Z,8.7
2023-01-12T22:05:26.447Z,8.7
2023-01-12T22:07:53.293Z,8.7
2023-01-12T22:10:18.779Z,8.7
2023-01-12T22:12:44.171Z,8.7
2023-01-12T22:15:11.021Z,8.7
2023-01-12T22:17:37.858Z,8.7
2023-01-12T22:20:04.687Z,8.7
2023-01-12T22:22:31.625Z,8.7
2023-01-12T22:24:58.370Z,8.7
2023-01-12T22:27:25.217Z,8.7
2023-01-12T22:29:52.077Z,8.7
2023-01-12T22:32:18.895Z,8.7
2023-01-12T22:34:45.791Z,8.7
2023-01-12T22:37:12.540Z,8.7
2023-01-12T22:42:04.929Z,8.7
2023-01-12T22:44:31.772Z,8.7
2023-01-12T22:46:57.071Z,8.7
2023-01-12T22:51:50.753Z,8.7
2023-01-12T22:54:17.582Z,8.7
2023-01-12T22:56:44.462Z,8.7
2023-01-12T22:59:11.346Z,8.7
2023-01-12T23:01:38.203Z,8.7
2023-01-12T23:04:04.945Z,8.7
2023-01-12T23:06:31.805Z,8.7
2023-01-12T23:08:58.740Z,8.7
2023-01-12T23:11:25.543Z,8.7
2023-01-12T23:13:52.309Z,8.7
2023-01-12T23:16:19.168Z,8.7
2023-01-12T23:18:44.558Z,8.7
2023-01-12T23:21:11.466Z,8.7
2023-01-12T23:23:38.251Z,8.7
2023-01-12T23:26:05.089Z,8.7
2023-01-12T23:28:31.978Z,8.7
2023-01-12T23:33:25.618Z,8.7
2023-01-12T23:35:52.452Z,8.7
2023-01-12T23:38:19.296Z,8.7
2023-01-12T23:40:46.125Z,8.7
2023-01-12T23:43:12.976Z,8.7
2023-01-12T23:45:39.802Z,8.7
2023-01-12T23:48:06.668Z,8.7
2023-01-12T23:50:32.110Z,8.7
2023-01-12T23:52:58.911Z,8.7
2023-01-12T23:55:25.747Z,8.7
2023-01-12T23:57:52.596Z,8.7
